sensor_id;sensor_type;location;lat;lon;timestamp;pressure;altitude;pressure_sealevel;temperature;humidity
85244;BME280;75643;56.928;41.094;2024-02-23T00:01:21;100813.97;;;-5.40;79.07
85244;BME280;75643;56.928;41.094;2024-02-23T00:03:47;100794.44;;;-5.49;79.22
85244;BME280;75643;56.928;41.094;2024-02-23T00:06:14;100808.63;;;-5.43;79.43
85244;BME280;75643;56.928;41.094;2024-02-23T00:08:40;100791.56;;;-5.54;79.42
85244;BME280;75643;56.928;41.094;2024-02-23T00:11:11;100809.72;;;-5.39;79.48
85244;BME280;75643;56.928;41.094;2024-02-23T00:13:37;100824.56;;;-5.35;79.52
85244;BME280;75643;56.928;41.094;2024-02-23T00:16:03;100795.63;;;-5.44;79.33
85244;BME280;75643;56.928;41.094;2024-02-23T00:18:32;100814.97;;;-5.38;79.54
85244;BME280;75643;56.928;41.094;2024-02-23T00:20:59;100804.66;;;-5.38;79.26
85244;BME280;75643;56.928;41.094;2024-02-23T00:23:25;100804.56;;;-5.39;79.41
85244;BME280;75643;56.928;41.094;2024-02-23T00:25:51;100808.22;;;-5.36;79.14
85244;BME280;75643;56.928;41.094;2024-02-23T00:28:17;100812.59;;;-5.34;79.60
85244;BME280;75643;56.928;41.094;2024-02-23T00:30:44;100808.31;;;-5.34;79.58
85244;BME280;75643;56.928;41.094;2024-02-23T00:33:10;100802.19;;;-5.36;79.70
85244;BME280;75643;56.928;41.094;2024-02-23T00:35:36;100813.72;;;-5.31;79.23
85244;BME280;75643;56.928;41.094;2024-02-23T00:38:02;100812.59;;;-5.34;79.54
85244;BME280;75643;56.928;41.094;2024-02-23T00:40:28;100811.81;;;-5.33;79.43
85244;BME280;75643;56.928;41.094;2024-02-23T00:42:54;100814.50;;;-5.32;79.55
85244;BME280;75643;56.928;41.094;2024-02-23T00:45:21;100815.16;;;-5.34;79.42
85244;BME280;75643;56.928;41.094;2024-02-23T00:47:47;100815.28;;;-5.33;79.32
85244;BME280;75643;56.928;41.094;2024-02-23T00:50:14;100810.13;;;-5.33;79.59
85244;BME280;75643;56.928;41.094;2024-02-23T00:52:40;100816.84;;;-5.35;79.42
85244;BME280;75643;56.928;41.094;2024-02-23T00:55:07;100810.91;;;-5.34;79.79
85244;BME280;75643;56.928;41.094;2024-02-23T00:57:34;100796.16;;;-5.37;79.45
85244;BME280;75643;56.928;41.094;2024-02-23T01:00:02;100804.97;;;-5.33;79.47
85244;BME280;75643;56.928;41.094;2024-02-23T01:02:31;100795.16;;;-5.39;79.25
85244;BME280;75643;56.928;41.094;2024-02-23T01:04:58;100815.47;;;-5.30;79.21
85244;BME280;75643;56.928;41.094;2024-02-23T01:07:25;100813.59;;;-5.32;79.30
85244;BME280;75643;56.928;41.094;2024-02-23T01:09:51;100821.63;;;-5.28;79.11
85244;BME280;75643;56.928;41.094;2024-02-23T01:12:17;100813.88;;;-5.28;79.14
85244;BME280;75643;56.928;41.094;2024-02-23T01:14:43;100807.72;;;-5.30;79.41
85244;BME280;75643;56.928;41.094;2024-02-23T01:17:09;100824.97;;;-5.29;79.01
85244;BME280;75643;56.928;41.094;2024-02-23T01:19:35;100806.94;;;-5.29;79.34
85244;BME280;75643;56.928;41.094;2024-02-23T01:22:02;100827.78;;;-5.26;79.53
85244;BME280;75643;56.928;41.094;2024-02-23T01:24:28;100825.78;;;-5.30;79.57
85244;BME280;75643;56.928;41.094;2024-02-23T01:26:55;100817.84;;;-5.33;79.32
85244;BME280;75643;56.928;41.094;2024-02-23T01:29:22;100823.19;;;-5.30;79.22
85244;BME280;75643;56.928;41.094;2024-02-23T01:31:49;100823.19;;;-5.30;79.44
85244;BME280;75643;56.928;41.094;2024-02-23T01:34:15;100828.47;;;-5.28;79.14
85244;BME280;75643;56.928;41.094;2024-02-23T01:36:41;100825.88;;;-5.28;79.48
85244;BME280;75643;56.928;41.094;2024-02-23T01:39:08;100831.81;;;-5.29;79.51
85244;BME280;75643;56.928;41.094;2024-02-23T01:41:34;100811.81;;;-5.33;79.25
85244;BME280;75643;56.928;41.094;2024-02-23T01:44:00;100829.25;;;-5.29;79.28
85244;BME280;75643;56.928;41.094;2024-02-23T01:46:26;100822.22;;;-5.32;79.01
85244;BME280;75643;56.928;41.094;2024-02-23T01:48:53;100823.19;;;-5.30;79.65
85244;BME280;75643;56.928;41.094;2024-02-23T01:51:19;100826.00;;;-5.27;79.22
85244;BME280;75643;56.928;41.094;2024-02-23T01:53:46;100821.84;;;-5.25;79.29
85244;BME280;75643;56.928;41.094;2024-02-23T01:56:14;100803.97;;;-5.35;79.31
85244;BME280;75643;56.928;41.094;2024-02-23T01:58:43;100818.25;;;-5.27;79.19
85244;BME280;75643;56.928;41.094;2024-02-23T02:01:12;100828.34;;;-5.30;79.30
85244;BME280;75643;56.928;41.094;2024-02-23T02:03:39;100812.16;;;-5.41;79.53
85244;BME280;75643;56.928;41.094;2024-02-23T02:06:06;100816.75;;;-5.37;79.54
85244;BME280;75643;56.928;41.094;2024-02-23T02:08:33;100817.44;;;-5.39;79.69
85244;BME280;75643;56.928;41.094;2024-02-23T02:11:00;100829.94;;;-5.32;79.62
85244;BME280;75643;56.928;41.094;2024-02-23T02:13:30;100814.84;;;-5.39;79.22
85244;BME280;75643;56.928;41.094;2024-02-23T02:15:59;100827.38;;;-5.32;79.44
85244;BME280;75643;56.928;41.094;2024-02-23T02:18:26;100840.44;;;-5.29;79.02
85244;BME280;75643;56.928;41.094;2024-02-23T02:20:56;100832.63;;;-5.30;79.46
85244;BME280;75643;56.928;41.094;2024-02-23T02:23:24;100825.16;;;-5.39;79.35
85244;BME280;75643;56.928;41.094;2024-02-23T02:25:57;100840.25;;;-5.32;78.87
85244;BME280;75643;56.928;41.094;2024-02-23T02:28:24;100829.31;;;-5.41;79.51
85244;BME280;75643;56.928;41.094;2024-02-23T02:30:51;100840.25;;;-5.32;79.23
85244;BME280;75643;56.928;41.094;2024-02-23T02:33:18;100832.63;;;-5.30;79.31
85244;BME280;75643;56.928;41.094;2024-02-23T02:35:45;100840.25;;;-5.32;79.23
85244;BME280;75643;56.928;41.094;2024-02-23T02:38:11;100824.97;;;-5.42;78.94
85244;BME280;75643;56.928;41.094;2024-02-23T02:40:38;100836.47;;;-5.37;79.45
85244;BME280;75643;56.928;41.094;2024-02-23T02:43:04;100824.38;;;-5.38;79.30
85244;BME280;75643;56.928;41.094;2024-02-23T02:45:31;100829.44;;;-5.40;78.95
85244;BME280;75643;56.928;41.094;2024-02-23T02:48:00;100835.78;;;-5.34;79.37
85244;BME280;75643;56.928;41.094;2024-02-23T02:50:26;100844.41;;;-5.34;78.98
85244;BME280;75643;56.928;41.094;2024-02-23T02:52:52;100835.88;;;-5.33;78.76
85244;BME280;75643;56.928;41.094;2024-02-23T02:55:18;100815.66;;;-5.40;79.15
85244;BME280;75643;56.928;41.094;2024-02-23T02:57:44;100822.28;;;-5.44;79.04
85244;BME280;75643;56.928;41.094;2024-02-23T03:00:11;100835.00;;;-5.33;79.13
85244;BME280;75643;56.928;41.094;2024-02-23T03:02:37;100832.91;;;-5.39;79.04
85244;BME280;75643;56.928;41.094;2024-02-23T03:05:06;100838.84;;;-5.40;79.12
85244;BME280;75643;56.928;41.094;2024-02-23T03:07:33;100839.06;;;-5.37;79.29
85244;BME280;75643;56.928;41.094;2024-02-23T03:09:59;100833.13;;;-5.36;79.18
85244;BME280;75643;56.928;41.094;2024-02-23T03:12:25;100818.09;;;-5.42;79.23
85244;BME280;75643;56.928;41.094;2024-02-23T03:14:51;100838.84;;;-5.40;79.33
85244;BME280;75643;56.928;41.094;2024-02-23T03:17:17;100839.13;;;-5.36;78.84
85244;BME280;75643;56.928;41.094;2024-02-23T03:19:44;100846.56;;;-5.40;79.20
85244;BME280;75643;56.928;41.094;2024-02-23T03:22:10;100837.25;;;-5.38;78.82
85244;BME280;75643;56.928;41.094;2024-02-23T03:24:37;100836.25;;;-5.40;78.79
85244;BME280;75643;56.928;41.094;2024-02-23T03:27:04;100841.53;;;-5.39;79.11
85244;BME280;75643;56.928;41.094;2024-02-23T03:29:30;100834.47;;;-5.41;79.32
85244;BME280;75643;56.928;41.094;2024-02-23T03:31:56;100831.09;;;-5.40;78.98
85244;BME280;75643;56.928;41.094;2024-02-23T03:34:23;100841.53;;;-5.39;79.65
85244;BME280;75643;56.928;41.094;2024-02-23T03:36:49;100819.59;;;-5.45;79.23
85244;BME280;75643;56.928;41.094;2024-02-23T03:39:15;100832.78;;;-5.41;78.98
85244;BME280;75643;56.928;41.094;2024-02-23T03:41:41;100836.06;;;-5.43;79.36
85244;BME280;75643;56.928;41.094;2024-02-23T03:44:07;100841.41;;;-5.40;78.88
85244;BME280;75643;56.928;41.094;2024-02-23T03:46:33;100837.75;;;-5.44;78.80
85244;BME280;75643;56.928;41.094;2024-02-23T03:49:00;100844.28;;;-5.36;78.78
85244;BME280;75643;56.928;41.094;2024-02-23T03:51:26;100845.09;;;-5.37;79.10
85244;BME280;75643;56.928;41.094;2024-02-23T03:53:53;100835.47;;;-5.39;79.13
85244;BME280;75643;56.928;41.094;2024-02-23T03:56:19;100835.84;;;-5.46;78.85
85244;BME280;75643;56.928;41.094;2024-02-23T03:58:45;100859.34;;;-5.42;78.87
85244;BME280;75643;56.928;41.094;2024-02-23T04:01:11;100832.28;;;-5.48;79.06
85244;BME280;75643;56.928;41.094;2024-02-23T04:03:37;100849.84;;;-5.43;78.84
85244;BME280;75643;56.928;41.094;2024-02-23T04:06:04;100862.63;;;-5.44;79.11
85244;BME280;75643;56.928;41.094;2024-02-23T04:08:30;100849.03;;;-5.42;79.28
85244;BME280;75643;56.928;41.094;2024-02-23T04:10:57;100857.56;;;-5.43;78.94
85244;BME280;75643;56.928;41.094;2024-02-23T04:13:23;100850.50;;;-5.45;79.18
85244;BME280;75643;56.928;41.094;2024-02-23T04:15:50;100863.63;;;-5.42;79.22
85244;BME280;75643;56.928;41.094;2024-02-23T04:18:16;100856.56;;;-5.45;79.44
85244;BME280;75643;56.928;41.094;2024-02-23T04:20:42;100846.31;;;-5.56;79.13
85244;BME280;75643;56.928;41.094;2024-02-23T04:23:08;100861.72;;;-5.45;79.08
85244;BME280;75643;56.928;41.094;2024-02-23T04:25:35;100863.19;;;-5.48;79.12
85244;BME280;75643;56.928;41.094;2024-02-23T04:28:01;100861.41;;;-5.49;79.01
85244;BME280;75643;56.928;41.094;2024-02-23T04:30:27;100878.84;;;-5.45;78.98
85244;BME280;75643;56.928;41.094;2024-02-23T04:32:53;100869.22;;;-5.48;79.17
85244;BME280;75643;56.928;41.094;2024-02-23T04:35:19;100875.25;;;-5.47;78.94
85244;BME280;75643;56.928;41.094;2024-02-23T04:37:45;100875.25;;;-5.47;79.24
85244;BME280;75643;56.928;41.094;2024-02-23T04:40:12;100878.84;;;-5.45;79.28
85244;BME280;75643;56.928;41.094;2024-02-23T04:42:39;100877.06;;;-5.46;79.20
85244;BME280;75643;56.928;41.094;2024-02-23T04:45:05;100873.50;;;-5.48;79.08
85244;BME280;75643;56.928;41.094;2024-02-23T04:47:31;100871.59;;;-5.51;79.23
85244;BME280;75643;56.928;41.094;2024-02-23T04:49:58;100873.97;;;-5.54;78.96
85244;BME280;75643;56.928;41.094;2024-02-23T04:52:25;100878.91;;;-5.57;79.34
85244;BME280;75643;56.928;41.094;2024-02-23T04:54:51;100873.97;;;-5.54;79.24
85244;BME280;75643;56.928;41.094;2024-02-23T04:57:17;100878.78;;;-5.58;79.39
85244;BME280;75643;56.928;41.094;2024-02-23T04:59:43;100882.97;;;-5.60;79.53
85244;BME280;75643;56.928;41.094;2024-02-23T05:02:10;100886.63;;;-5.57;79.46
85244;BME280;75643;56.928;41.094;2024-02-23T05:04:37;100855.00;;;-5.67;79.50
85244;BME280;75643;56.928;41.094;2024-02-23T05:07:03;100869.66;;;-5.66;79.43
85244;BME280;75643;56.928;41.094;2024-02-23T05:09:29;100868.34;;;-5.73;79.71
85244;BME280;75643;56.928;41.094;2024-02-23T05:11:55;100880.38;;;-5.60;79.56
85244;BME280;75643;56.928;41.094;2024-02-23T05:14:21;100868.97;;;-5.64;79.86
85244;BME280;75643;56.928;41.094;2024-02-23T05:16:47;100874.00;;;-5.65;79.74
85244;BME280;75643;56.928;41.094;2024-02-23T05:19:14;100880.84;;;-5.66;79.34
85244;BME280;75643;56.928;41.094;2024-02-23T05:21:40;100872.91;;;-5.69;79.50
85244;BME280;75643;56.928;41.094;2024-02-23T05:24:06;100879.16;;;-5.65;79.35
85244;BME280;75643;56.928;41.094;2024-02-23T05:26:34;100889.09;;;-5.58;79.32
85244;BME280;75643;56.928;41.094;2024-02-23T05:29:01;100865.00;;;-5.59;78.78
85244;BME280;75643;56.928;41.094;2024-02-23T05:31:48;100883.28;;;-5.56;79.21
85244;BME280;75643;56.928;41.094;2024-02-23T05:34:16;100885.16;;;-5.53;79.17
85244;BME280;75643;56.928;41.094;2024-02-23T05:36:44;100891.19;;;-5.53;79.08
85244;BME280;75643;56.928;41.094;2024-02-23T05:39:13;100885.06;;;-5.55;79.08
85244;BME280;75643;56.928;41.094;2024-02-23T05:41:41;100887.72;;;-5.53;78.80
85244;BME280;75643;56.928;41.094;2024-02-23T05:44:08;100887.84;;;-5.52;78.48
85244;BME280;75643;56.928;41.094;2024-02-23T05:46:35;100883.09;;;-5.46;78.50
85244;BME280;75643;56.928;41.094;2024-02-23T05:49:02;100878.66;;;-5.48;78.28
85244;BME280;75643;56.928;41.094;2024-02-23T05:51:30;100884.78;;;-5.46;77.93
85244;BME280;75643;56.928;41.094;2024-02-23T05:54:00;100895.50;;;-5.40;78.08
85244;BME280;75643;56.928;41.094;2024-02-23T05:56:26;100907.44;;;-5.29;77.45
85244;BME280;75643;56.928;41.094;2024-02-23T05:58:53;100898.50;;;-5.34;77.67
85244;BME280;75643;56.928;41.094;2024-02-23T06:01:20;100905.66;;;-5.30;77.63
85244;BME280;75643;56.928;41.094;2024-02-23T06:03:46;100893.16;;;-5.37;78.03
85244;BME280;75643;56.928;41.094;2024-02-23T06:06:13;100900.91;;;-5.24;78.03
85244;BME280;75643;56.928;41.094;2024-02-23T06:08:40;100891.19;;;-5.28;77.84
85244;BME280;75643;56.928;41.094;2024-02-23T06:11:09;100907.09;;;-5.22;77.44
85244;BME280;75643;56.928;41.094;2024-02-23T06:13:38;100905.41;;;-5.21;77.57
85244;BME280;75643;56.928;41.094;2024-02-23T06:16:09;100914.41;;;-5.28;77.53
85244;BME280;75643;56.928;41.094;2024-02-23T06:18:36;100916.13;;;-5.15;77.74
85244;BME280;75643;56.928;41.094;2024-02-23T06:21:16;100918.59;;;-5.17;77.46
85244;BME280;75643;56.928;41.094;2024-02-23T06:23:46;100903.25;;;-5.15;77.33
85244;BME280;75643;56.928;41.094;2024-02-23T06:26:13;100883.16;;;-5.32;77.54
85244;BME280;75643;56.928;41.094;2024-02-23T06:28:39;100922.72;;;-5.07;77.00
85244;BME280;75643;56.928;41.094;2024-02-23T06:31:08;100923.53;;;-4.95;76.89
85244;BME280;75643;56.928;41.094;2024-02-23T06:33:35;100922.25;;;-4.88;76.17
85244;BME280;75643;56.928;41.094;2024-02-23T06:36:01;100923.25;;;-4.86;76.40
85244;BME280;75643;56.928;41.094;2024-02-23T06:38:29;100921.66;;;-4.84;76.46
85244;BME280;75643;56.928;41.094;2024-02-23T06:40:56;100926.25;;;-4.80;76.28
85244;BME280;75643;56.928;41.094;2024-02-23T06:43:24;100904.72;;;-4.68;76.59
85244;BME280;75643;56.928;41.094;2024-02-23T06:45:51;100899.47;;;-4.69;75.93
85244;BME280;75643;56.928;41.094;2024-02-23T06:48:18;100916.47;;;-4.60;75.82
85244;BME280;75643;56.928;41.094;2024-02-23T06:50:45;100922.50;;;-4.59;76.48
85244;BME280;75643;56.928;41.094;2024-02-23T06:53:11;100927.19;;;-4.53;75.68
85244;BME280;75643;56.928;41.094;2024-02-23T06:55:41;100909.19;;;-4.52;75.61
85244;BME280;75643;56.928;41.094;2024-02-23T06:58:07;100903.88;;;-4.42;75.00
85244;BME280;75643;56.928;41.094;2024-02-23T07:00:35;100918.75;;;-4.38;74.88
85244;BME280;75643;56.928;41.094;2024-02-23T07:03:02;100922.91;;;-4.40;74.64
85244;BME280;75643;56.928;41.094;2024-02-23T07:05:29;100925.38;;;-4.28;74.89
85244;BME280;75643;56.928;41.094;2024-02-23T07:07:56;100923.91;;;-4.38;74.85
85244;BME280;75643;56.928;41.094;2024-02-23T07:10:26;100935.22;;;-4.36;74.35
85244;BME280;75643;56.928;41.094;2024-02-23T07:12:54;100934.34;;;-4.36;74.63
85244;BME280;75643;56.928;41.094;2024-02-23T07:15:27;100930.94;;;-4.35;74.59
85244;BME280;75643;56.928;41.094;2024-02-23T07:17:55;100925.50;;;-4.27;75.07
85244;BME280;75643;56.928;41.094;2024-02-23T07:20:22;100913.47;;;-4.39;73.87
85244;BME280;75643;56.928;41.094;2024-02-23T07:22:48;100928.66;;;-4.44;74.64
85244;BME280;75643;56.928;41.094;2024-02-23T07:25:18;100931.44;;;-4.28;74.46
85244;BME280;75643;56.928;41.094;2024-02-23T07:27:47;100935.13;;;-4.11;74.50
85244;BME280;75643;56.928;41.094;2024-02-23T07:30:15;100936.31;;;-4.06;74.00
85244;BME280;75643;56.928;41.094;2024-02-23T07:32:44;100935.13;;;-4.11;73.60
85244;BME280;75643;56.928;41.094;2024-02-23T07:35:12;100939.31;;;-4.13;73.70
85244;BME280;75643;56.928;41.094;2024-02-23T07:37:39;100941.69;;;-4.03;73.42
85244;BME280;75643;56.928;41.094;2024-02-23T07:40:06;100938.78;;;-3.94;72.90
85244;BME280;75643;56.928;41.094;2024-02-23T07:42:32;100948.81;;;-3.86;73.27
85244;BME280;75643;56.928;41.094;2024-02-23T07:45:05;100938.53;;;-3.71;73.04
85244;BME280;75643;56.928;41.094;2024-02-23T07:47:32;100943.91;;;-3.68;72.76
85244;BME280;75643;56.928;41.094;2024-02-23T07:49:59;100921.34;;;-3.71;72.47
85244;BME280;75643;56.928;41.094;2024-02-23T07:52:25;100949.25;;;-3.65;72.92
85244;BME280;75643;56.928;41.094;2024-02-23T07:54:52;100919.59;;;-3.72;72.80
85244;BME280;75643;56.928;41.094;2024-02-23T07:57:19;100935.38;;;-3.67;72.85
85244;BME280;75643;56.928;41.094;2024-02-23T07:59:45;100933.63;;;-3.53;72.44
85244;BME280;75643;56.928;41.094;2024-02-23T08:02:12;100950.91;;;-3.52;72.64
85244;BME280;75643;56.928;41.094;2024-02-23T08:04:38;100944.09;;;-3.24;72.38
85244;BME280;75643;56.928;41.094;2024-02-23T08:07:04;100946.06;;;-3.05;71.75
85244;BME280;75643;56.928;41.094;2024-02-23T08:09:31;100947.50;;;-3.10;71.54
85244;BME280;75643;56.928;41.094;2024-02-23T08:11:58;100948.59;;;-3.07;71.51
85244;BME280;75643;56.928;41.094;2024-02-23T08:14:24;100951.88;;;-3.09;72.08
85244;BME280;75643;56.928;41.094;2024-02-23T08:16:50;100955.72;;;-3.03;71.13
85244;BME280;75643;56.928;41.094;2024-02-23T08:19:16;100965.59;;;-3.10;71.25
85244;BME280;75643;56.928;41.094;2024-02-23T08:21:42;100962.53;;;-2.90;70.78
85244;BME280;75643;56.928;41.094;2024-02-23T08:24:10;100964.50;;;-2.86;70.77
85244;BME280;75643;56.928;41.094;2024-02-23T08:26:36;100953.25;;;-3.01;70.41
85244;BME280;75643;56.928;41.094;2024-02-23T08:29:04;100963.69;;;-2.85;71.01
85244;BME280;75643;56.928;41.094;2024-02-23T08:31:31;100963.53;;;-2.59;70.40
85244;BME280;75643;56.928;41.094;2024-02-23T08:33:57;100969.72;;;-2.57;69.92
85244;BME280;75643;56.928;41.094;2024-02-23T08:36:24;100964.53;;;-2.57;69.85
85244;BME280;75643;56.928;41.094;2024-02-23T08:38:50;100980.25;;;-2.54;70.34
85244;BME280;75643;56.928;41.094;2024-02-23T08:41:16;100959.72;;;-2.65;69.80
85244;BME280;75643;56.928;41.094;2024-02-23T08:43:43;100980.78;;;-2.44;69.94
85244;BME280;75643;56.928;41.094;2024-02-23T08:46:09;100979.16;;;-2.28;69.15
85244;BME280;75643;56.928;41.094;2024-02-23T08:48:35;100957.22;;;-2.20;68.88
85244;BME280;75643;56.928;41.094;2024-02-23T08:51:01;100967.06;;;-1.83;68.42
85244;BME280;75643;56.928;41.094;2024-02-23T08:53:27;100988.28;;;-2.20;68.41
85244;BME280;75643;56.928;41.094;2024-02-23T08:55:53;100992.84;;;-2.30;69.39
85244;BME280;75643;56.928;41.094;2024-02-23T08:58:20;100986.94;;;-2.13;69.04
85244;BME280;75643;56.928;41.094;2024-02-23T09:00:46;100972.59;;;-1.77;68.56
85244;BME280;75643;56.928;41.094;2024-02-23T09:03:12;100981.19;;;-1.47;67.92
85244;BME280;75643;56.928;41.094;2024-02-23T09:05:39;100979.59;;;-1.60;67.97
85244;BME280;75643;56.928;41.094;2024-02-23T09:08:06;100980.03;;;-1.83;68.87
85244;BME280;75643;56.928;41.094;2024-02-23T09:10:32;100985.06;;;-2.01;69.84
85244;BME280;75643;56.928;41.094;2024-02-23T09:12:58;100978.72;;;-2.21;70.50
85244;BME280;75643;56.928;41.094;2024-02-23T09:15:24;100983.81;;;-2.08;70.41
85244;BME280;75643;56.928;41.094;2024-02-23T09:17:50;100978.28;;;-2.14;69.70
85244;BME280;75643;56.928;41.094;2024-02-23T09:20:17;100998.66;;;-2.20;70.24
85244;BME280;75643;56.928;41.094;2024-02-23T09:22:43;100995.78;;;-2.10;70.92
85244;BME280;75643;56.928;41.094;2024-02-23T09:25:10;100997.66;;;-2.07;70.41
85244;BME280;75643;56.928;41.094;2024-02-23T09:27:36;100990.97;;;-2.18;70.77
85244;BME280;75643;56.928;41.094;2024-02-23T09:30:06;100990.25;;;-2.01;70.05
85244;BME280;75643;56.928;41.094;2024-02-23T09:32:33;100995.72;;;-1.80;69.86
85244;BME280;75643;56.928;41.094;2024-02-23T09:34:59;101001.25;;;-1.59;69.03
85244;BME280;75643;56.928;41.094;2024-02-23T09:37:25;100999.03;;;-1.37;68.52
85244;BME280;75643;56.928;41.094;2024-02-23T09:39:51;100989.22;;;-1.27;68.15
85244;BME280;75643;56.928;41.094;2024-02-23T09:42:18;100968.94;;;-1.34;67.92
85244;BME280;75643;56.928;41.094;2024-02-23T09:44:57;101006.47;;;-1.27;67.79
85244;BME280;75643;56.928;41.094;2024-02-23T09:47:24;100958.34;;;-1.22;67.35
85244;BME280;75643;56.928;41.094;2024-02-23T09:49:52;100993.38;;;-0.98;67.22
85244;BME280;75643;56.928;41.094;2024-02-23T09:52:20;101000.41;;;-1.11;67.35
85244;BME280;75643;56.928;41.094;2024-02-23T09:54:47;100979.06;;;-1.38;68.24
85244;BME280;75643;56.928;41.094;2024-02-23T09:57:15;100990.91;;;-1.74;69.07
85244;BME280;75643;56.928;41.094;2024-02-23T09:59:41;101000.81;;;-1.82;69.13
85244;BME280;75643;56.928;41.094;2024-02-23T10:02:09;100989.19;;;-1.74;69.77
85244;BME280;75643;56.928;41.094;2024-02-23T10:04:39;100982.34;;;-1.88;69.91
85244;BME280;75643;56.928;41.094;2024-02-23T10:07:08;101002.22;;;-1.41;69.17
85244;BME280;75643;56.928;41.094;2024-02-23T10:09:35;101008.75;;;-1.17;68.28
85244;BME280;75643;56.928;41.094;2024-02-23T10:12:04;101002.03;;;-1.30;68.25
85244;BME280;75643;56.928;41.094;2024-02-23T10:14:30;100997.22;;;-1.38;67.96
85244;BME280;75643;56.928;41.094;2024-02-23T10:16:56;100989.03;;;-1.46;68.75
85244;BME280;75643;56.928;41.094;2024-02-23T10:19:23;100986.75;;;-1.71;68.49
85244;BME280;75643;56.928;41.094;2024-02-23T10:21:55;100994.13;;;-1.78;69.61
85244;BME280;75643;56.928;41.094;2024-02-23T10:24:23;100991.09;;;-1.71;69.66
85244;BME280;75643;56.928;41.094;2024-02-23T10:26:51;100987.31;;;-1.76;69.43
85244;BME280;75643;56.928;41.094;2024-02-23T10:29:17;100998.66;;;-1.74;68.95
85244;BME280;75643;56.928;41.094;2024-02-23T10:31:46;100983.56;;;-1.81;68.59
85244;BME280;75643;56.928;41.094;2024-02-23T10:34:18;101000.66;;;-1.99;69.31
85244;BME280;75643;56.928;41.094;2024-02-23T10:36:46;100985.06;;;-2.01;70.22
85244;BME280;75643;56.928;41.094;2024-02-23T10:39:16;100980.50;;;-2.05;69.90
85244;BME280;75643;56.928;41.094;2024-02-23T10:42:02;100988.59;;;-1.84;69.94
85244;BME280;75643;56.928;41.094;2024-02-23T10:44:29;100992.28;;;-1.65;69.80
85244;BME280;75643;56.928;41.094;2024-02-23T10:46:58;100992.28;;;-1.65;69.09
85244;BME280;75643;56.928;41.094;2024-02-23T10:49:25;100998.56;;;-1.76;70.17
85244;BME280;75643;56.928;41.094;2024-02-23T10:51:53;101007.09;;;-1.78;70.27
85244;BME280;75643;56.928;41.094;2024-02-23T10:54:20;101003.09;;;-1.57;70.07
85244;BME280;75643;56.928;41.094;2024-02-23T10:56:48;100997.56;;;-1.63;69.70
85244;BME280;75643;56.928;41.094;2024-02-23T10:59:15;101012.56;;;-1.57;69.64
85244;BME280;75643;56.928;41.094;2024-02-23T11:01:48;101009.88;;;-1.59;69.49
85244;BME280;75643;56.928;41.094;2024-02-23T11:04:17;101001.94;;;-1.47;69.52
85244;BME280;75643;56.928;41.094;2024-02-23T11:06:49;101018.69;;;-1.41;69.36
85244;BME280;75643;56.928;41.094;2024-02-23T11:09:16;101012.09;;;-1.19;69.42
85244;BME280;75643;56.928;41.094;2024-02-23T11:11:56;101011.91;;;-1.39;68.91
85244;BME280;75643;56.928;41.094;2024-02-23T11:14:30;100993.47;;;-1.59;69.33
85244;BME280;75643;56.928;41.094;2024-02-23T11:16:58;101005.94;;;-1.52;69.61
85244;BME280;75643;56.928;41.094;2024-02-23T11:19:39;101016.16;;;-1.55;69.42
85244;BME280;75643;56.928;41.094;2024-02-23T11:22:11;101023.84;;;-1.57;70.00
85244;BME280;75643;56.928;41.094;2024-02-23T11:24:42;101027.84;;;-1.47;70.28
85244;BME280;75643;56.928;41.094;2024-02-23T11:27:14;101015.94;;;-1.44;69.52
85244;BME280;75643;56.928;41.094;2024-02-23T11:29:44;101019.88;;;-1.50;70.68
85244;BME280;75643;56.928;41.094;2024-02-23T11:32:15;101021.97;;;-1.59;70.58
85244;BME280;75643;56.928;41.094;2024-02-23T11:34:42;101017.06;;;-1.70;70.07
85244;BME280;75643;56.928;41.094;2024-02-23T11:37:11;101011.81;;;-1.71;70.51
85244;BME280;75643;56.928;41.094;2024-02-23T11:39:38;101033.56;;;-1.53;70.64
85244;BME280;75643;56.928;41.094;2024-02-23T11:42:07;101022.47;;;-1.50;70.60
85244;BME280;75643;56.928;41.094;2024-02-23T11:44:34;101028.03;;;-1.59;69.98
85244;BME280;75643;56.928;41.094;2024-02-23T11:47:02;101035.19;;;-1.55;70.27
85244;BME280;75643;56.928;41.094;2024-02-23T11:49:29;101025.44;;;-1.59;70.18
85244;BME280;75643;56.928;41.094;2024-02-23T11:51:55;101036.09;;;-1.69;70.45
85244;BME280;75643;56.928;41.094;2024-02-23T11:54:22;101014.31;;;-1.87;70.52
85244;BME280;75643;56.928;41.094;2024-02-23T11:56:49;101022.84;;;-1.90;71.12
85244;BME280;75643;56.928;41.094;2024-02-23T11:59:20;101019.06;;;-1.80;70.88
85244;BME280;75643;56.928;41.094;2024-02-23T12:01:47;101021.44;;;-1.69;70.53
85244;BME280;75643;56.928;41.094;2024-02-23T12:04:14;100998.84;;;-1.71;70.76
85244;BME280;75643;56.928;41.094;2024-02-23T12:06:44;101008.69;;;-1.80;69.92
85244;BME280;75643;56.928;41.094;2024-02-23T12:09:12;101027.56;;;-1.83;71.04
85244;BME280;75643;56.928;41.094;2024-02-23T12:11:39;101018.81;;;-1.85;71.22
85244;BME280;75643;56.928;41.094;2024-02-23T12:14:05;101008.09;;;-1.91;70.50
85244;BME280;75643;56.928;41.094;2024-02-23T12:16:35;101014.34;;;-2.02;71.44
85244;BME280;75643;56.928;41.094;2024-02-23T12:19:02;101016.94;;;-2.02;71.96
85244;BME280;75643;56.928;41.094;2024-02-23T12:21:29;100999.72;;;-2.16;71.01
85244;BME280;75643;56.928;41.094;2024-02-23T12:23:56;101032.59;;;-2.30;71.94
85244;BME280;75643;56.928;41.094;2024-02-23T12:26:22;101031.50;;;-2.48;72.87
85244;BME280;75643;56.928;41.094;2024-02-23T12:28:48;101034.34;;;-2.43;73.25
85244;BME280;75643;56.928;41.094;2024-02-23T12:31:16;101039.34;;;-2.47;73.00
85244;BME280;75643;56.928;41.094;2024-02-23T12:33:50;101043.72;;;-2.45;73.43
85244;BME280;75643;56.928;41.094;2024-02-23T12:36:16;101046.56;;;-2.41;73.07
85244;BME280;75643;56.928;41.094;2024-02-23T12:38:43;101043.56;;;-2.34;73.75
85244;BME280;75643;56.928;41.094;2024-02-23T12:41:10;101040.59;;;-2.40;72.79